createdAt,value
2023-03-10T00:04:55.096Z,21.86
2023-03-10T00:09:57.877Z,21.82
2023-03-10T00:15:02.128Z,21.79
2023-03-10T00:20:10.548Z,21.77
2023-03-10T00:25:13.391Z,21.74
2023-03-10T00:30:18.014Z,21.71
2023-03-10T00:35:20.778Z,21.68
2023-03-10T00:40:24.016Z,21.65
2023-03-10T00:45:28.414Z,21.62
2023-03-10T00:50:31.096Z,21.58
2023-03-10T00:55:33.808Z,21.57
2023-03-10T01:00:37.925Z,21.53
2023-03-10T01:05:40.638Z,21.49
2023-03-10T01:10:45.115Z,21.46
2023-03-10T01:15:50.501Z,21.44
2023-03-10T01:20:53.296Z,21.42
2023-03-10T01:25:56.518Z,21.39
2023-03-10T01:31:00.977Z,21.36
2023-03-10T01:36:07.922Z,21.33
2023-03-10T01:41:11.570Z,21.31
2023-03-10T01:46:38.427Z,21.28
2023-03-10T01:51:57.739Z,21.25
2023-03-10T01:57:00.965Z,21.22
2023-03-10T02:02:05.902Z,21.20
2023-03-10T02:07:09.620Z,21.18
2023-03-10T02:12:15.085Z,21.16
2023-03-10T02:17:24.079Z,21.14
2023-03-10T02:22:27.633Z,21.11
2023-03-10T02:27:36.422Z,21.06
2023-03-10T02:32:43.076Z,21.07
2023-03-10T02:37:46.208Z,21.06
2023-03-10T02:42:51.402Z,21.05
2023-03-10T02:47:54.252Z,21.04
2023-03-10T02:53:04.449Z,21.02
2023-03-10T02:58:09.103Z,21.01
2023-03-10T03:03:12.697Z,20.99
2023-03-10T03:08:15.996Z,20.97
2023-03-10T03:13:20.355Z,20.97
2023-03-10T03:18:23.517Z,20.95
2023-03-10T03:23:27.052Z,20.94
2023-03-10T03:28:31.801Z,20.93
2023-03-10T03:33:34.799Z,20.92
2023-03-10T03:38:38.025Z,20.90
2023-03-10T03:43:42.293Z,20.88
2023-03-10T03:48:45.060Z,20.88
2023-03-10T03:53:48.711Z,20.85
2023-03-10T03:58:53.034Z,20.84
2023-03-10T04:03:56.341Z,20.83
2023-03-10T04:08:59.450Z,20.80
2023-03-10T04:14:05.921Z,20.78
2023-03-10T04:19:09.497Z,20.78
2023-03-10T04:24:16.604Z,20.79
2023-03-10T04:29:24.285Z,20.77
2023-03-10T04:34:28.716Z,20.76
2023-03-10T04:39:31.796Z,20.76
2023-03-10T04:44:36.455Z,20.73
2023-03-10T04:49:41.453Z,20.72
2023-03-10T04:54:47.518Z,20.71
2023-03-10T04:59:52.580Z,20.70
2023-03-10T05:04:55.374Z,20.69
2023-03-10T05:09:59.015Z,20.68
2023-03-10T05:15:05.995Z,20.67
2023-03-10T05:20:10.913Z,20.66
2023-03-10T05:25:14.029Z,20.65
2023-03-10T05:30:19.639Z,20.63
2023-03-10T05:35:25.663Z,20.64
2023-03-10T05:40:28.650Z,20.62
2023-03-10T05:45:33.225Z,20.60
2023-03-10T05:50:35.988Z,20.59
2023-03-10T05:55:38.738Z,20.58
2023-03-10T06:00:42.880Z,20.57
2023-03-10T06:05:45.969Z,20.56
2023-03-10T06:10:48.764Z,20.56
2023-03-10T06:15:54.500Z,20.52
2023-03-10T06:20:57.595Z,20.53
2023-03-10T06:26:02.331Z,20.50
2023-03-10T06:31:09.011Z,20.51
2023-03-10T06:36:13.223Z,20.52
2023-03-10T06:41:22.297Z,20.50
2023-03-10T06:46:26.591Z,20.50
2023-03-10T06:51:29.406Z,20.50
2023-03-10T06:56:32.492Z,20.50
2023-03-10T07:01:36.554Z,20.50
2023-03-10T07:06:39.949Z,20.53
2023-03-10T07:11:42.710Z,20.53
2023-03-10T07:16:47.223Z,20.51
2023-03-10T07:21:50.245Z,20.52
2023-03-10T07:26:52.969Z,20.53
2023-03-10T07:31:57.138Z,20.53
2023-03-10T07:37:00.217Z,20.55
2023-03-10T07:42:02.982Z,20.54
2023-03-10T07:47:09.564Z,20.57
2023-03-10T07:52:12.265Z,20.57
2023-03-10T07:57:16.340Z,20.62
2023-03-10T08:02:20.434Z,20.62
2023-03-10T08:07:23.259Z,20.60
2023-03-10T08:12:26.045Z,20.68
2023-03-10T08:17:31.193Z,20.59
2023-03-10T08:22:33.948Z,19.53
2023-03-10T08:27:36.677Z,19.14
2023-03-10T08:32:41.362Z,18.99
2023-03-10T08:37:44.231Z,18.84
2023-03-10T08:42:48.379Z,18.46
2023-03-10T08:47:52.690Z,18.53
2023-03-10T08:52:55.413Z,18.56
2023-03-10T08:57:58.397Z,18.70
2023-03-10T09:03:02.501Z,19.49
2023-03-10T09:08:07.998Z,19.88
2023-03-10T09:13:14.315Z,20.13
2023-03-10T09:18:18.595Z,20.27
2023-03-10T09:23:21.374Z,20.41
2023-03-10T09:28:24.109Z,20.49
2023-03-10T09:33:28.361Z,20.56
2023-03-10T09:38:31.092Z,20.63
2023-03-10T09:43:39.219Z,20.70
2023-03-10T09:48:51.345Z,20.76
2023-03-10T09:54:06.521Z,20.80
2023-03-10T09:59:16.757Z,20.84
2023-03-10T10:04:26.056Z,20.89
2023-03-10T10:09:42.095Z,20.92
2023-03-10T10:14:55.257Z,20.96
2023-03-10T10:20:01.131Z,20.98
2023-03-10T10:25:19.424Z,20.99
2023-03-10T10:30:34.813Z,20.99
2023-03-10T10:35:41.256Z,20.98
2023-03-10T10:40:49.965Z,20.96
2023-03-10T10:45:55.352Z,20.96
2023-03-10T10:50:59.580Z,20.95
2023-03-10T10:56:05.786Z,20.94
2023-03-10T11:01:12.363Z,20.94
2023-03-10T11:06:27.007Z,20.93
2023-03-10T11:11:39.651Z,20.65
2023-03-10T11:16:51.081Z,20.30
2023-03-10T11:22:02.106Z,20.24
2023-03-10T11:27:13.879Z,20.54
2023-03-10T11:32:23.695Z,20.79
2023-03-10T11:37:34.500Z,20.88
2023-03-10T11:42:44.755Z,20.94
2023-03-10T11:47:57.702Z,21.01
2023-03-10T11:53:06.520Z,20.85
2023-03-10T11:58:24.343Z,20.57
2023-03-10T12:03:41.390Z,20.43
2023-03-10T12:08:47.604Z,20.77
2023-03-10T12:13:53.422Z,20.92
2023-03-10T12:18:56.510Z,21.01
2023-03-10T12:24:02.725Z,21.12
2023-03-10T12:29:32.068Z,21.16
2023-03-10T12:34:34.953Z,21.14
2023-03-10T12:39:43.548Z,21.18
2023-03-10T12:44:52.071Z,21.20
2023-03-10T12:49:59.132Z,21.23
2023-03-10T12:55:17.793Z,21.32
2023-03-10T13:00:30.810Z,21.36
2023-03-10T13:05:35.720Z,21.42
2023-03-10T13:10:43.680Z,21.50
2023-03-10T13:15:58.625Z,20.57
2023-03-10T13:21:02.191Z,20.98
2023-03-10T13:26:07.892Z,21.17
2023-03-10T13:31:20.165Z,20.95
2023-03-10T13:36:41.015Z,21.13
2023-03-10T13:41:48.115Z,21.22
2023-03-10T13:46:52.760Z,21.27
2023-03-10T13:51:57.624Z,21.32
2023-03-10T13:57:08.582Z,21.31
2023-03-10T14:02:18.732Z,21.33
2023-03-10T14:07:23.392Z,21.23
2023-03-10T14:12:38.056Z,21.26
2023-03-10T14:17:41.786Z,21.30
2023-03-10T14:22:44.655Z,21.36
2023-03-10T14:27:57.492Z,21.37
2023-03-10T14:33:02.141Z,21.39
2023-03-10T14:38:04.937Z,21.40
2023-03-10T14:43:16.693Z,21.46
2023-03-10T14:48:22.275Z,21.48
2023-03-10T14:53:28.035Z,21.52
2023-03-10T14:58:35.688Z,21.72
2023-03-10T15:03:38.485Z,21.72
2023-03-10T15:08:41.628Z,21.71
2023-03-10T15:13:45.816Z,21.87
2023-03-10T15:18:49.167Z,22.10
2023-03-10T15:23:51.856Z,22.07
2023-03-10T15:28:55.962Z,22.00
2023-03-10T15:33:58.722Z,22.09
2023-03-10T15:39:01.668Z,22.58
2023-03-10T15:44:06.404Z,22.59
2023-03-10T15:49:09.302Z,22.55
2023-03-10T15:54:12.754Z,22.57
2023-03-10T15:59:17.455Z,22.59
2023-03-10T16:04:20.472Z,21.95
2023-03-10T16:09:23.433Z,21.51
2023-03-10T16:14:28.353Z,20.79
2023-03-10T16:19:31.344Z,21.72
2023-03-10T16:24:34.242Z,22.06
2023-03-10T16:29:40.144Z,22.04
2023-03-10T16:34:42.859Z,22.08
2023-03-10T16:39:45.667Z,22.11
2023-03-10T16:44:50.068Z,22.02
2023-03-10T16:49:54.343Z,22.00
2023-03-10T16:54:58.396Z,22.01
2023-03-10T17:00:05.403Z,22.00
2023-03-10T17:05:09.982Z,21.96
2023-03-10T17:10:13.087Z,21.88
2023-03-10T17:15:17.294Z,21.86
2023-03-10T17:20:20.299Z,21.84
2023-03-10T17:25:23.341Z,21.79
2023-03-10T17:30:27.447Z,21.75
2023-03-10T17:35:30.351Z,21.69
2023-03-10T17:40:34.679Z,21.65
2023-03-10T17:45:38.729Z,21.60
2023-03-10T17:50:41.507Z,21.57
2023-03-10T17:55:44.340Z,21.54
2023-03-10T18:00:48.860Z,21.50
2023-03-10T18:05:51.651Z,21.46
2023-03-10T18:11:00.851Z,21.43
2023-03-10T18:16:05.466Z,21.41
2023-03-10T18:21:09.476Z,21.41
2023-03-10T18:26:14.260Z,21.35
2023-03-10T18:31:20.704Z,21.34
2023-03-10T18:36:24.830Z,21.33
2023-03-10T18:41:30.343Z,21.36
2023-03-10T18:46:34.674Z,21.43
2023-03-10T18:51:37.466Z,21.49
2023-03-10T18:56:40.214Z,21.54
2023-03-10T19:01:44.334Z,21.58
2023-03-10T19:06:47.320Z,21.63
2023-03-10T19:11:50.769Z,21.69
2023-03-10T19:16:54.856Z,21.74
2023-03-10T19:21:57.743Z,21.78
2023-03-10T19:27:03.969Z,21.81
2023-03-10T19:32:08.558Z,21.86
2023-03-10T19:37:11.314Z,21.86
2023-03-10T19:42:14.080Z,21.91
2023-03-10T19:47:19.238Z,21.98
2023-03-10T19:52:22.041Z,22.00
2023-03-10T19:57:24.896Z,22.00
2023-03-10T20:02:29.544Z,22.06
2023-03-10T20:07:32.314Z,22.09
2023-03-10T20:12:35.120Z,22.04
2023-03-10T20:17:39.478Z,22.08
2023-03-10T20:22:46.329Z,22.10
2023-03-10T20:27:51.005Z,22.06
2023-03-10T20:32:55.528Z,22.12
2023-03-10T20:37:59.006Z,22.08
2023-03-10T20:43:01.819Z,22.12
2023-03-10T20:48:06.463Z,22.10
2023-03-10T20:53:09.220Z,22.14
2023-03-10T20:58:11.996Z,22.10
2023-03-10T21:03:16.282Z,22.21
2023-03-10T21:13:22.974Z,22.20
2023-03-10T21:18:26.998Z,22.12
2023-03-10T21:23:29.777Z,22.18
2023-03-10T21:28:43.483Z,22.22
2023-03-10T21:33:47.814Z,22.23
2023-03-10T21:38:51.773Z,22.18
2023-03-10T21:43:55.356Z,22.11
2023-03-10T21:49:00.308Z,22.15
2023-03-10T21:54:04.058Z,22.14
2023-03-10T21:59:07.377Z,22.22
2023-03-10T22:04:12.947Z,22.26
2023-03-10T22:09:15.895Z,22.30
2023-03-10T22:14:18.780Z,22.27
2023-03-10T22:19:22.930Z,22.30
2023-03-10T22:24:26.110Z,22.29
2023-03-10T22:29:28.781Z,22.28
2023-03-10T22:34:32.996Z,22.24
2023-03-10T22:39:38.503Z,22.22
2023-03-10T22:44:41.398Z,22.17
2023-03-10T22:49:46.305Z,22.15
2023-03-10T22:54:49.076Z,22.10
2023-03-10T22:59:51.908Z,22.08
2023-03-10T23:04:56.192Z,22.06
2023-03-10T23:09:59.152Z,22.02
2023-03-10T23:15:05.137Z,22.00
2023-03-10T23:20:13.916Z,21.95
2023-03-10T23:25:18.860Z,21.94
2023-03-10T23:30:21.879Z,21.91
2023-03-10T23:35:29.272Z,21.89
2023-03-10T23:40:32.716Z,21.85
2023-03-10T23:45:37.843Z,21.81
2023-03-10T23:50:43.436Z,21.82
2023-03-10T23:55:47.875Z,21.79
